This is the latest recevied weather packets stored in our database for station/object SV2HZE-18. If no packets are shown the sender has not sent any weather packets the latest 10 day(s).
| Time | Temp. | Humidity | Pressure | Rain* | Wind** | Luminosity | Snow |
|---|---|---|---|---|---|---|---|
| 1787727961 | 38.89° C | 31% | 1014.8 hPa | - | - | - | - |
| 1787727061 | 38.33° C | 32% | 1014.8 hPa | - | - | - | - |
| 1787726161 | 38.33° C | 32% | 1014.7 hPa | - | - | - | - |
| 1787725260 | 36.11° C | 35% | 1014.7 hPa | - | - | - | - |
| 1787724357 | 35.56° C | 36% | 1014.6 hPa | - | - | - | - |
| 1787723456 | 33.89° C | 40% | 1014.5 hPa | - | - | - | - |
| 1787721655 | 31.67° C | 43% | 1014.5 hPa | - | - | - | - |
| 1787720755 | 31.11° C | 45% | 1014.5 hPa | - | - | - | - |
| 1787719855 | 29.44° C | 49% | 1014.5 hPa | - | - | - | - |
| 1787718955 | 26.67° C | 55% | 1014.5 hPa | - | - | - | - |
| 1787718055 | 26.11° C | 58% | 1014.4 hPa | - | - | - | - |
| 1787717155 | 25.56° C | 61% | 1014.4 hPa | - | - | - | - |
| 1787716255 | 25° C | 61% | 1014.5 hPa | - | - | - | - |
| 1787715354 | 25° C | 61% | 1014.5 hPa | - | - | - | - |
| 1787714454 | 25.56° C | 62% | 1014.5 hPa | - | - | - | - |
| 1787713584 | 25° C | 61% | 1014.6 hPa | - | - | - | - |
| 1787712684 | 25.56° C | 61% | 1014.6 hPa | - | - | - | - |
| 1787711780 | 25° C | 61% | 1014.4 hPa | - | - | - | - |
| 1787710880 | 25.56° C | 61% | 1014.3 hPa | - | - | - | - |
| 1787709983 | 25.56° C | 60% | 1014.4 hPa | - | - | - | - |
| 1787709079 | 25.56° C | 60% | 1014.5 hPa | - | - | - | - |
| 1787708182 | 25.56° C | 60% | 1014.4 hPa | - | - | - | - |
| 1787707278 | 26.11° C | 60% | 1014.6 hPa | - | - | - | - |
| 1787706375 | 26.11° C | 58% | 1014.7 hPa | - | - | - | - |
| 1787705473 | 26.11° C | 58% | 1014.7 hPa | - | - | - | - |
* Rain since midnight (hover to see other rain measurements)
** Current wind speed in m/s (hover to see current wind gust speed)